createdAt,value
2023-02-18T00:01:17.838Z,20.17
2023-02-18T00:03:48.111Z,19.40
2023-02-18T00:06:26.748Z,19.77
2023-02-18T00:08:58.350Z,20.60
2023-02-18T00:11:28.819Z,21.40
2023-02-18T00:14:01.679Z,20.70
2023-02-18T00:16:32.532Z,21.52
2023-02-18T00:19:06.445Z,20.30
2023-02-18T00:21:38.013Z,20.77
2023-02-18T00:24:09.927Z,20.15
2023-02-18T00:26:39.401Z,19.85
2023-02-18T00:29:09.022Z,19.92
2023-02-18T00:31:42.470Z,20.80
2023-02-18T00:34:14.604Z,21.95
2023-02-18T00:36:44.652Z,22.52
2023-02-18T00:39:15.018Z,21.77
2023-02-18T00:41:45.204Z,23.80
2023-02-18T00:44:16.139Z,21.42
2023-02-18T00:46:45.760Z,19.70
2023-02-18T00:49:15.083Z,21.05
2023-02-18T00:51:44.787Z,23.48
2023-02-18T00:54:14.034Z,22.73
2023-02-18T00:56:43.300Z,22.73
2023-02-18T00:59:12.569Z,22.17
2023-02-18T01:01:41.824Z,20.63
2023-02-18T01:04:11.059Z,22.10
2023-02-18T01:06:40.750Z,21.17
2023-02-18T01:09:10.109Z,23.38
2023-02-18T01:11:39.350Z,23.48
2023-02-18T01:14:08.688Z,24.05
2023-02-18T01:16:38.368Z,25.58
2023-02-18T01:19:07.985Z,23.67
2023-02-18T01:21:37.865Z,23.48
2023-02-18T01:24:07.966Z,24.42
2023-02-18T01:26:37.313Z,41.38
2023-02-18T01:29:06.581Z,25.80
2023-02-18T01:31:35.967Z,26.08
2023-02-18T01:34:05.271Z,26.00
2023-02-18T01:36:34.528Z,23.73
2023-02-18T01:39:03.680Z,23.23
2023-02-18T01:41:34.100Z,23.08
2023-02-18T01:44:26.662Z,23.60
2023-02-18T01:46:57.408Z,21.67
2023-02-18T01:49:36.688Z,21.73
2023-02-18T01:52:29.952Z,21.55
2023-02-18T01:55:00.379Z,21.25
2023-02-18T01:57:38.144Z,22.92
2023-02-18T02:00:22.616Z,22.60
2023-02-18T02:02:54.426Z,21.55
2023-02-18T02:05:24.242Z,22.17
2023-02-18T02:07:56.037Z,21.38
2023-02-18T02:10:25.763Z,22.02
2023-02-18T02:13:16.495Z,20.30
2023-02-18T02:15:51.483Z,20.27
2023-02-18T02:19:00.140Z,21.45
2023-02-18T02:21:57.756Z,21.30
2023-02-18T02:24:57.821Z,22.30
2023-02-18T02:27:49.504Z,22.48
2023-02-18T02:31:04.810Z,22.80
2023-02-18T02:33:57.784Z,22.20
2023-02-18T02:37:10.835Z,21.77
2023-02-18T02:40:45.287Z,22.08
2023-02-18T02:43:25.927Z,20.48
2023-02-18T02:46:08.404Z,19.95
2023-02-18T02:48:57.446Z,21.85
2023-02-18T02:51:58.330Z,19.83
2023-02-18T02:54:30.083Z,19.48
2023-02-18T02:57:31.476Z,19.05
2023-02-18T03:00:14.094Z,18.40
2023-02-18T03:03:10.067Z,19.25
2023-02-18T03:06:05.904Z,19.17
2023-02-18T03:09:23.574Z,19.90
2023-02-18T03:12:38.549Z,21.02
2023-02-18T03:15:27.654Z,20.23
2023-02-18T03:18:57.085Z,19.92
2023-02-18T03:22:18.654Z,20.23
2023-02-18T03:24:56.832Z,18.85
2023-02-18T03:27:36.381Z,20.25
2023-02-18T03:30:16.672Z,20.33
2023-02-18T03:32:52.304Z,21.40
2023-02-18T03:35:21.970Z,20.38
2023-02-18T03:38:05.745Z,20.15
2023-02-18T03:40:35.202Z,18.90
2023-02-18T03:43:04.348Z,20.30
2023-02-18T03:45:33.992Z,21.85
2023-02-18T03:48:03.120Z,20.73
2023-02-18T03:50:32.242Z,19.58
2023-02-18T03:53:01.442Z,20.13
2023-02-18T03:55:30.829Z,19.30
2023-02-18T03:57:59.955Z,20.98
2023-02-18T04:00:29.138Z,18.52
2023-02-18T04:02:58.231Z,18.08
2023-02-18T04:05:27.352Z,18.55
2023-02-18T04:07:56.497Z,17.77
2023-02-18T04:10:25.770Z,19.02
2023-02-18T04:12:55.095Z,19.58
2023-02-18T04:15:24.168Z,19.35
2023-02-18T04:17:53.420Z,22.40
2023-02-18T04:20:23.554Z,20.17
2023-02-18T04:22:53.858Z,19.85
2023-02-18T04:25:23.123Z,19.15
2023-02-18T04:27:52.285Z,19.10
2023-02-18T04:30:21.612Z,20.02
2023-02-18T04:32:51.264Z,19.38
2023-02-18T04:35:20.484Z,19.65
2023-02-18T04:37:49.988Z,21.65
2023-02-18T04:40:19.378Z,22.48
2023-02-18T04:42:48.576Z,22.38
2023-02-18T04:45:17.814Z,25.05
2023-02-18T04:47:46.978Z,25.15
2023-02-18T04:50:16.487Z,25.67
2023-02-18T04:52:45.671Z,23.58
2023-02-18T04:55:15.119Z,22.73
2023-02-18T04:57:44.276Z,24.33
2023-02-18T05:00:19.327Z,23.20
2023-02-18T05:02:49.457Z,23.58
2023-02-18T05:05:18.982Z,25.10
2023-02-18T05:07:48.200Z,25.63
2023-02-18T05:10:19.933Z,24.58
2023-02-18T05:12:49.371Z,24.77
2023-02-18T05:15:18.752Z,23.23
2023-02-18T05:17:47.969Z,27.90
2023-02-18T05:20:17.299Z,28.60
2023-02-18T05:22:46.540Z,28.02
2023-02-18T05:25:15.789Z,28.90
2023-02-18T05:27:45.023Z,28.73
2023-02-18T05:30:15.044Z,26.27
2023-02-18T05:32:44.259Z,28.65
2023-02-18T05:35:14.632Z,28.80
2023-02-18T05:37:43.826Z,27.88
2023-02-18T05:40:14.150Z,27.30
2023-02-18T05:42:43.319Z,26.70
2023-02-18T05:45:12.627Z,25.98
2023-02-18T05:47:41.948Z,26.27
2023-02-18T05:50:11.491Z,26.08
2023-02-18T05:52:41.109Z,24.35
2023-02-18T05:55:10.855Z,24.50
2023-02-18T05:57:40.057Z,24.58
2023-02-18T06:00:11.242Z,23.55
2023-02-18T06:02:40.838Z,22.35
2023-02-18T06:05:10.819Z,22.48
2023-02-18T06:07:40.213Z,21.05
2023-02-18T06:10:09.985Z,21.73
2023-02-18T06:12:39.269Z,22.02
2023-02-18T06:15:09.142Z,19.92
2023-02-18T06:17:38.417Z,20.42
2023-02-18T06:20:08.672Z,19.58
2023-02-18T06:22:38.257Z,18.75
2023-02-18T06:25:08.075Z,20.20
2023-02-18T06:27:37.317Z,18.15
2023-02-18T06:30:07.465Z,19.27
2023-02-18T06:32:36.736Z,17.90
2023-02-18T06:35:06.096Z,17.98
2023-02-18T06:37:35.692Z,19.15
2023-02-18T06:40:05.090Z,17.92
2023-02-18T06:42:34.326Z,15.57
2023-02-18T06:45:03.499Z,17.35
2023-02-18T06:47:32.688Z,18.48
2023-02-18T06:50:02.064Z,17.17
2023-02-18T06:52:34.368Z,17.38
2023-02-18T06:55:03.689Z,16.63
2023-02-18T06:57:33.097Z,16.77
2023-02-18T07:00:02.768Z,16.38
2023-02-18T07:02:32.321Z,16.67
2023-02-18T07:05:01.655Z,16.33
2023-02-18T07:07:30.957Z,17.08
2023-02-18T07:10:00.267Z,16.33
2023-02-18T07:12:29.698Z,17.10
2023-02-18T07:14:58.910Z,17.58
2023-02-18T07:17:28.678Z,18.00
2023-02-18T07:19:58.495Z,17.40
2023-02-18T07:22:27.918Z,18.73
2023-02-18T07:24:57.352Z,19.58
2023-02-18T07:27:26.565Z,18.25
2023-02-18T07:29:55.914Z,18.65
2023-02-18T07:32:25.366Z,16.35
2023-02-18T07:34:55.117Z,16.92
2023-02-18T07:37:24.304Z,18.20
2023-02-18T07:39:53.516Z,16.73
2023-02-18T07:42:22.679Z,18.52
2023-02-18T07:44:52.076Z,17.30
2023-02-18T07:47:21.421Z,18.25
2023-02-18T07:49:50.743Z,16.05
2023-02-18T07:52:19.964Z,16.83
2023-02-18T07:54:49.334Z,16.63
2023-02-18T07:57:18.554Z,16.77
2023-02-18T07:59:47.776Z,17.63
2023-02-18T08:02:23.676Z,16.67
2023-02-18T08:04:53.602Z,17.02
2023-02-18T08:07:24.690Z,17.70
2023-02-18T08:09:53.871Z,16.90
2023-02-18T08:12:23.103Z,17.02
2023-02-18T08:14:52.310Z,17.23
2023-02-18T08:17:21.498Z,16.73
2023-02-18T08:19:51.166Z,17.38
2023-02-18T08:22:20.359Z,16.27
2023-02-18T08:24:49.630Z,17.00
2023-02-18T08:27:18.721Z,17.45
2023-02-18T08:29:48.667Z,16.55
2023-02-18T08:32:17.818Z,15.80
2023-02-18T08:34:46.904Z,16.48
2023-02-18T08:37:16.266Z,15.95
2023-02-18T08:39:45.352Z,16.15
2023-02-18T08:42:14.480Z,15.55
2023-02-18T08:44:43.678Z,16.08
2023-02-18T08:48:18.072Z,14.32
2023-02-18T08:50:02.157Z,15.38
2023-02-18T08:52:31.258Z,15.15
2023-02-18T08:55:00.364Z,16.10
2023-02-18T08:57:30.508Z,16.33
2023-02-18T08:59:59.736Z,15.00
2023-02-18T09:02:30.232Z,14.75
2023-02-18T09:04:59.422Z,15.27
2023-02-18T09:07:28.739Z,15.73
2023-02-18T09:09:57.832Z,15.90
2023-02-18T09:12:27.327Z,16.85
2023-02-18T09:14:56.480Z,15.75
2023-02-18T09:17:25.701Z,15.48
2023-02-18T09:19:55.119Z,14.15
2023-02-18T09:22:24.552Z,18.05
2023-02-18T09:24:53.701Z,15.07
2023-02-18T09:27:23.654Z,15.15
2023-02-18T09:29:53.135Z,15.02
2023-02-18T09:32:33.599Z,14.85
2023-02-18T09:35:04.045Z,15.98
2023-02-18T09:37:33.266Z,14.45
2023-02-18T09:40:02.349Z,15.50
2023-02-18T09:42:36.465Z,16.30
2023-02-18T09:45:13.974Z,16.52
2023-02-18T09:47:46.049Z,15.75
2023-02-18T09:50:27.985Z,15.23
2023-02-18T09:53:00.663Z,16.83
2023-02-18T09:55:33.553Z,18.25
2023-02-18T09:58:17.018Z,15.70
2023-02-18T10:00:52.921Z,19.50
2023-02-18T10:03:27.804Z,16.52
2023-02-18T10:06:16.737Z,16.70
2023-02-18T10:08:50.842Z,16.00
2023-02-18T10:14:16.298Z,17.70
2023-02-18T10:16:52.218Z,18.20
2023-02-18T10:19:42.277Z,17.08
2023-02-18T10:22:15.862Z,17.17
2023-02-18T10:24:52.380Z,17.70
2023-02-18T10:27:33.591Z,17.73
2023-02-18T10:30:44.515Z,18.35
2023-02-18T10:33:43.938Z,18.42
2023-02-18T10:36:47.768Z,17.60
2023-02-18T10:39:50.115Z,20.65
2023-02-18T10:42:32.501Z,17.50
2023-02-18T10:45:28.397Z,18.70
2023-02-18T10:48:00.350Z,19.27
2023-02-18T10:50:42.145Z,19.10
2023-02-18T10:53:27.613Z,18.88
2023-02-18T10:55:57.788Z,18.05
2023-02-18T10:58:48.562Z,18.50
2023-02-18T11:01:22.494Z,18.45
2023-02-18T11:04:06.227Z,17.83
2023-02-18T11:06:49.507Z,17.58
2023-02-18T11:09:57.178Z,19.05
2023-02-18T11:12:53.409Z,19.05
2023-02-18T11:15:27.261Z,19.55
2023-02-18T11:18:13.312Z,19.58
2023-02-18T11:20:42.936Z,20.48
2023-02-18T11:23:21.844Z,19.90
2023-02-18T11:26:04.448Z,22.33
2023-02-18T11:28:52.846Z,20.92
2023-02-18T11:31:31.285Z,22.70
2023-02-18T11:34:04.321Z,23.08
2023-02-18T11:36:39.628Z,21.83
2023-02-18T11:39:21.017Z,22.35
2023-02-18T11:42:14.188Z,22.60
2023-02-18T11:45:00.947Z,22.50
2023-02-18T11:47:37.957Z,23.83
2023-02-18T11:50:22.107Z,22.05
2023-02-18T11:52:54.778Z,22.50
2023-02-18T11:55:28.358Z,25.27
2023-02-18T11:58:11.982Z,24.75
2023-02-18T12:00:49.450Z,25.52
2023-02-18T12:03:44.207Z,25.33
2023-02-18T12:06:40.218Z,24.92
2023-02-18T12:09:32.820Z,24.98
2023-02-18T12:12:40.708Z,26.25
2023-02-18T12:15:19.080Z,25.25
2023-02-18T12:18:15.948Z,26.50
2023-02-18T12:21:34.681Z,28.48
2023-02-18T12:24:55.594Z,27.75
2023-02-18T12:27:42.771Z,28.10
2023-02-18T12:30:44.568Z,29.17
2023-02-18T12:33:38.017Z,30.10
2023-02-18T12:36:28.767Z,31.17
2023-02-18T12:39:29.970Z,30.48
2023-02-18T12:42:48.950Z,30.83
2023-02-18T12:45:32.563Z,29.77
2023-02-18T12:48:08.265Z,32.45
2023-02-18T12:51:00.821Z,33.00
2023-02-18T12:54:10.990Z,30.90
2023-02-18T12:56:48.711Z,33.65
2023-02-18T13:00:31.118Z,31.08
2023-02-18T13:03:36.914Z,31.80
2023-02-18T13:06:46.896Z,31.65
2023-02-18T13:09:51.125Z,32.10
2023-02-18T13:12:36.057Z,32.22
2023-02-18T13:16:02.873Z,32.95
2023-02-18T13:19:05.090Z,31.85
2023-02-18T13:21:38.568Z,32.92
2023-02-18T13:24:14.431Z,32.25
2023-02-18T13:26:49.715Z,33.97
2023-02-18T13:29:46.982Z,31.92
2023-02-18T13:32:30.685Z,34.58
2023-02-18T13:35:29.613Z,31.83
2023-02-18T13:38:23.405Z,33.70
2023-02-18T13:40:53.541Z,34.42
2023-02-18T13:43:36.293Z,33.92
2023-02-18T13:46:20.824Z,34.33
2023-02-18T13:49:07.930Z,36.25
2023-02-18T13:51:46.036Z,34.03
2023-02-18T13:54:18.121Z,33.70
2023-02-18T13:57:25.226Z,35.10
2023-02-18T14:00:06.236Z,35.97
2023-02-18T14:02:38.785Z,36.72
2023-02-18T14:05:10.716Z,35.55
2023-02-18T14:07:54.550Z,35.67
2023-02-18T14:10:23.769Z,35.97
2023-02-18T14:12:59.333Z,33.25
2023-02-18T14:15:28.703Z,34.40
2023-02-18T14:18:16.312Z,34.63
2023-02-18T14:20:53.870Z,37.13
2023-02-18T14:23:23.300Z,36.07
2023-02-18T14:26:15.252Z,35.17
2023-02-18T14:28:49.952Z,35.85
2023-02-18T14:31:38.025Z,36.13
2023-02-18T14:34:23.371Z,37.25
2023-02-18T14:37:29.949Z,37.17
2023-02-18T14:40:09.681Z,35.47
2023-02-18T14:43:18.573Z,35.35
2023-02-18T14:46:33.844Z,36.63
2023-02-18T14:49:30.346Z,36.65
2023-02-18T14:52:01.027Z,35.17
2023-02-18T14:54:32.642Z,36.72
2023-02-18T14:57:10.165Z,39.63
2023-02-18T14:59:45.711Z,38.97
2023-02-18T15:02:31.742Z,39.33
2023-02-18T15:05:33.658Z,38.35
2023-02-18T15:08:05.616Z,39.13
2023-02-18T15:10:49.244Z,37.72
2023-02-18T15:13:29.656Z,37.08
2023-02-18T15:16:10.626Z,37.20
2023-02-18T15:19:03.930Z,37.15
2023-02-18T15:21:55.471Z,39.47
2023-02-18T15:24:40.515Z,37.70
2023-02-18T15:27:26.938Z,36.75
2023-02-18T15:30:22.338Z,36.50
2023-02-18T15:32:58.256Z,36.78
2023-02-18T15:35:34.233Z,35.47
2023-02-18T15:38:05.481Z,35.58
2023-02-18T15:40:39.125Z,35.63
2023-02-18T15:43:10.431Z,34.75
2023-02-18T15:45:45.687Z,34.35
2023-02-18T15:48:36.418Z,33.92
2023-02-18T15:51:17.240Z,33.05
2023-02-18T15:53:52.714Z,33.42
2023-02-18T15:56:44.687Z,34.38
2023-02-18T15:59:23.577Z,32.45
2023-02-18T16:02:09.868Z,32.42
2023-02-18T16:04:49.989Z,33.92
2023-02-18T16:07:33.087Z,34.40
2023-02-18T16:10:24.648Z,32.35
2023-02-18T16:13:02.505Z,35.67
2023-02-18T16:15:41.665Z,34.65
2023-02-18T16:18:40.571Z,36.65
2023-02-18T16:21:34.031Z,38.40
2023-02-18T16:24:22.670Z,38.83
2023-02-18T16:26:56.144Z,42.00
2023-02-18T16:29:38.480Z,41.20
2023-02-18T16:32:07.687Z,39.45
2023-02-18T16:34:37.031Z,40.70
2023-02-18T16:37:24.532Z,42.55
2023-02-18T16:39:56.201Z,43.83
2023-02-18T16:42:25.563Z,40.40
2023-02-18T16:44:54.843Z,38.72
2023-02-18T16:47:24.042Z,39.05
2023-02-18T16:49:53.560Z,40.63
2023-02-18T16:52:22.653Z,39.92
2023-02-18T16:54:54.309Z,38.55
2023-02-18T16:57:23.458Z,40.83
2023-02-18T16:59:52.777Z,40.30
2023-02-18T17:02:24.091Z,40.83
2023-02-18T17:04:58.213Z,40.33
2023-02-18T17:07:27.650Z,40.85
2023-02-18T17:09:56.893Z,41.53
2023-02-18T17:12:26.321Z,38.75
2023-02-18T17:14:56.551Z,39.22
2023-02-18T17:17:25.803Z,41.33
2023-02-18T17:19:55.123Z,40.97
2023-02-18T17:22:24.391Z,41.60
2023-02-18T17:24:53.563Z,39.63
2023-02-18T17:27:22.781Z,40.60
2023-02-18T17:29:51.973Z,41.55
2023-02-18T17:32:21.328Z,42.33
2023-02-18T17:34:50.864Z,41.33
2023-02-18T17:37:20.064Z,42.13
2023-02-18T17:39:49.303Z,41.20
2023-02-18T17:42:22.140Z,39.90
2023-02-18T17:44:51.370Z,43.53
2023-02-18T17:47:20.625Z,40.53
2023-02-18T17:49:49.872Z,41.67
2023-02-18T17:52:32.456Z,40.42
2023-02-18T17:55:01.649Z,39.78
2023-02-18T17:57:30.844Z,41.67
2023-02-18T18:00:00.064Z,40.95
2023-02-18T18:02:30.599Z,41.25
2023-02-18T18:04:59.855Z,39.50
2023-02-18T18:07:29.072Z,39.60
2023-02-18T18:09:58.274Z,40.38
2023-02-18T18:12:28.366Z,38.90
2023-02-18T18:14:58.211Z,40.53
2023-02-18T18:17:27.458Z,40.30
2023-02-18T18:19:56.754Z,39.65
2023-02-18T18:22:25.923Z,40.22
2023-02-18T18:24:55.112Z,40.70
2023-02-18T18:27:24.352Z,39.47
2023-02-18T18:29:53.528Z,40.72
2023-02-18T18:32:23.778Z,39.78
2023-02-18T18:34:53.030Z,39.40
2023-02-18T18:37:22.190Z,38.75
2023-02-18T18:39:51.403Z,38.17
2023-02-18T18:42:20.706Z,39.70
2023-02-18T18:44:49.882Z,39.28
2023-02-18T18:47:22.792Z,39.20
2023-02-18T18:49:52.158Z,39.03
2023-02-18T18:52:22.282Z,40.35
2023-02-18T18:54:51.474Z,39.70
2023-02-18T18:57:20.640Z,39.33
2023-02-18T18:59:49.879Z,39.60
2023-02-18T19:02:20.679Z,40.55
2023-02-18T19:04:49.941Z,41.65
2023-02-18T19:07:19.082Z,41.13
2023-02-18T19:09:48.276Z,40.13
2023-02-18T19:12:17.868Z,43.10
2023-02-18T19:14:47.051Z,42.53
2023-02-18T19:17:18.747Z,45.13
2023-02-18T19:19:48.161Z,44.20
2023-02-18T19:22:17.305Z,43.58
2023-02-18T19:24:46.499Z,44.33
2023-02-18T19:27:18.140Z,42.80
2023-02-18T19:29:51.113Z,44.50
2023-02-18T19:32:20.344Z,45.20
2023-02-18T19:34:49.531Z,43.85
2023-02-18T19:37:18.776Z,45.08
2023-02-18T19:39:47.951Z,43.97
2023-02-18T19:42:17.146Z,43.80
2023-02-18T19:44:46.388Z,43.75
2023-02-18T19:47:15.587Z,43.05
2023-02-18T19:49:45.530Z,42.72
2023-02-18T19:52:14.805Z,42.80
2023-02-18T19:54:44.044Z,42.90
2023-02-18T19:57:13.962Z,45.00
2023-02-18T19:59:43.718Z,43.05
2023-02-18T20:02:20.031Z,42.97
2023-02-18T20:04:50.010Z,43.85
2023-02-18T20:07:22.918Z,44.72
2023-02-18T20:09:55.892Z,43.20
2023-02-18T20:12:25.902Z,43.83
2023-02-18T20:14:55.033Z,42.65
2023-02-18T20:17:24.172Z,42.40
2023-02-18T20:19:53.327Z,44.03
2023-02-18T20:22:22.767Z,39.97
2023-02-18T20:24:52.024Z,40.90
2023-02-18T20:27:21.155Z,40.70
2023-02-18T20:29:52.320Z,40.65
2023-02-18T20:32:21.485Z,38.67
2023-02-18T20:34:50.713Z,38.17
2023-02-18T20:37:19.870Z,39.97
2023-02-18T20:39:49.024Z,38.95
2023-02-18T20:42:18.102Z,38.67
2023-02-18T20:44:48.380Z,40.30
2023-02-18T20:47:17.937Z,39.17
2023-02-18T20:49:47.773Z,40.22
2023-02-18T20:52:17.466Z,40.42
2023-02-18T20:54:46.669Z,41.13
2023-02-18T20:57:15.893Z,40.88
2023-02-18T20:59:45.305Z,42.03
2023-02-18T21:02:17.675Z,40.50
2023-02-18T21:04:46.972Z,39.40
2023-02-18T21:07:16.080Z,38.33
2023-02-18T21:09:45.566Z,40.08
2023-02-18T21:12:14.747Z,41.60
2023-02-18T21:14:43.973Z,42.30
2023-02-18T21:17:13.162Z,42.08
2023-02-18T21:19:42.998Z,42.88
2023-02-18T21:22:12.218Z,40.17
2023-02-18T21:24:41.479Z,40.90
2023-02-18T21:27:11.495Z,41.22
2023-02-18T21:29:40.669Z,41.13
2023-02-18T21:32:10.192Z,43.10
2023-02-18T21:34:39.750Z,42.75
2023-02-18T21:37:09.022Z,40.33
2023-02-18T21:39:38.305Z,41.22
2023-02-18T21:42:07.753Z,41.33
2023-02-18T21:44:42.268Z,42.10
2023-02-18T21:47:13.016Z,43.30
2023-02-18T21:49:42.199Z,44.28
2023-02-18T21:52:11.419Z,43.20
2023-02-18T21:54:46.209Z,44.72
2023-02-18T21:57:22.996Z,44.20
2023-02-18T21:59:52.765Z,47.88
2023-02-18T22:02:28.486Z,48.97
2023-02-18T22:04:58.048Z,47.60
2023-02-18T22:07:28.544Z,51.60
2023-02-18T22:09:58.368Z,51.00
2023-02-18T22:12:28.551Z,54.72
2023-02-18T22:14:58.069Z,51.90
2023-02-18T22:17:30.560Z,54.25
2023-02-18T22:19:59.825Z,53.60
2023-02-18T22:22:30.633Z,54.45
2023-02-18T22:24:59.833Z,52.15
2023-02-18T22:27:29.227Z,55.53
2023-02-18T22:29:58.481Z,63.40
2023-02-18T22:32:27.876Z,56.13
2023-02-18T22:34:57.131Z,58.15
2023-02-18T22:37:26.570Z,60.15
2023-02-18T22:39:55.870Z,60.53
2023-02-18T22:42:25.069Z,58.30
2023-02-18T22:44:54.809Z,59.10
2023-02-18T22:47:23.978Z,60.88
2023-02-18T22:49:53.238Z,60.17
2023-02-18T22:52:22.433Z,61.13
2023-02-18T22:54:52.484Z,60.28
2023-02-18T22:57:22.712Z,63.47
2023-02-18T22:59:52.114Z,61.83
2023-02-18T23:02:22.296Z,60.72
2023-02-18T23:04:51.516Z,61.08
2023-02-18T23:07:21.273Z,60.35
2023-02-18T23:09:50.489Z,60.10
2023-02-18T23:12:20.151Z,60.72
2023-02-18T23:14:49.469Z,60.35
2023-02-18T23:17:18.756Z,60.50
2023-02-18T23:19:54.934Z,59.85
2023-02-18T23:22:34.717Z,59.65
2023-02-18T23:25:04.439Z,58.47
2023-02-18T23:27:33.761Z,59.05
2023-02-18T23:30:03.081Z,61.33
2023-02-18T23:32:33.004Z,59.05
2023-02-18T23:35:02.178Z,56.53
2023-02-18T23:37:49.527Z,56.97
2023-02-18T23:40:18.910Z,55.00
2023-02-18T23:42:48.106Z,55.17
2023-02-18T23:45:17.483Z,52.60
2023-02-18T23:47:46.895Z,55.20
2023-02-18T23:50:19.385Z,51.97
2023-02-18T23:52:51.125Z,55.33
2023-02-18T23:55:20.419Z,53.15
2023-02-18T23:57:49.984Z,52.65
